Monday, December 18, 2017, 9:34 AM EST
Back to Local

KLOM, Philadelphia, Wings Field Airport

Location: Blue Bell, PA, United States Lat: 40.138
Local Time: 9:34 AM EST (14:34 GMT) Lon: -75.265
Time Zone: US/Eastern Elev: 301 ft

Show me the last for .
Show Decoded

2017-12-18 09:15 METAR KLOM 181415Z AUTO 00000KT 5SM SCT055 02/00 A3012 RMK AO1 =
2017-12-18 08:35 METAR KLOM 181335Z AUTO 00000KT 5SM CLR 01/00 A3013 RMK AO1 =
2017-12-18 08:15 METAR KLOM 181315Z AUTO 00000KT 4SM CLR 00/00 A3013 RMK AO1 =
2017-12-18 07:55 METAR KLOM 181255Z AUTO 00000KT 4SM CLR 00/00 A3013 RMK AO1 =
2017-12-18 07:35 METAR KLOM 181235Z AUTO 00000KT 5SM SCT080 00/00 A3013 RMK AO1 =
2017-12-18 07:15 METAR KLOM 181215Z AUTO 00000KT 7SM BKN080 00/00 A3013 RMK AO1 =
2017-12-18 06:55 METAR KLOM 181155Z AUTO 00000KT 7SM SCT007 OVC090 01/00 A3012 RMK AO1 =
2017-12-18 06:35 METAR KLOM 181135Z AUTO 00000KT 7SM BKN007 BKN010 OVC090 01/00 A3013 RMK AO1 =
2017-12-18 06:15 METAR KLOM 181115Z AUTO 00000KT 7SM BKN007 BKN070 OVC090 01/00 A3013 RMK AO1 =
2017-12-18 05:55 METAR KLOM 181055Z AUTO 00000KT 7SM SCT007 SCT070 OVC090 01/00 A3013 RMK AO1 =
2017-12-18 05:35 METAR KLOM 181035Z AUTO 00000KT 7SM SCT007 BKN070 OVC090 01/00 A3013 RMK AO1 =
2017-12-18 05:15 METAR KLOM 181015Z AUTO 00000KT 7SM OVC007 01/00 A3013 RMK AO1 =
2017-12-18 04:55 METAR KLOM 180955Z AUTO 00000KT 7SM OVC007 01/00 A3014 RMK AO1 =
2017-12-18 04:35 METAR KLOM 180935Z AUTO 00000KT 7SM OVC007 01/00 A3014 RMK AO1 =
2017-12-18 04:15 METAR KLOM 180915Z AUTO 00000KT 10SM OVC007 01/00 A3014 RMK AO1 =
2017-12-18 03:55 METAR KLOM 180855Z AUTO 00000KT 7SM OVC007 01/00 A3015 RMK AO1 =
2017-12-18 03:35 METAR KLOM 180835Z AUTO 00000KT 10SM BKN007 OVC065 01/00 A3015 RMK AO1 =
2017-12-18 03:15 METAR KLOM 180815Z AUTO 00000KT 10SM SCT007 SCT011 OVC065 01/00 A3015 RMK AO1 =
2017-12-18 02:55 METAR KLOM 180755Z AUTO 00000KT 10SM OVC007 01/00 A3015 RMK AO1 =
2017-12-18 02:35 METAR KLOM 180735Z AUTO 00000KT 10SM BKN007 OVC075 01/00 A3015 RMK AO1 =
2017-12-18 02:15 METAR KLOM 180715Z AUTO 00000KT 10SM BKN007 BKN033 OVC075 01/00 A3015 RMK AO1 =
2017-12-18 01:55 METAR KLOM 180655Z AUTO 00000KT 10SM BKN033 OVC075 01/00 A3016 RMK AO1 =
2017-12-18 01:35 METAR KLOM 180635Z AUTO 00000KT 10SM BKN033 OVC070 01/00 A3016 RMK AO1 =
2017-12-18 01:15 METAR KLOM 180615Z AUTO 00000KT 10SM SCT033 BKN070 OVC095 01/00 A3016 RMK AO1 =
2017-12-18 00:55 METAR KLOM 180555Z AUTO 00000KT 10SM SCT070 OVC095 01/00 A3016 RMK AO1 =
2017-12-18 00:35 METAR KLOM 180535Z AUTO 00000KT 10SM OVC085 01/00 A3016 RMK AO1 =
2017-12-18 00:15 METAR KLOM 180515Z AUTO 00000KT 10SM OVC085 01/00 A3017 RMK AO1 =
2017-12-17 23:55 METAR KLOM 180455Z AUTO 06003KT 10SM OVC085 01/M01 A3017 RMK AO1 =
2017-12-17 23:35 METAR KLOM 180435Z AUTO 07003KT 10SM SCT075 OVC085 01/M01 A3018 RMK AO1 =
2017-12-17 23:15 METAR KLOM 180415Z AUTO 00000KT 10SM OVC090 01/M01 A3019 RMK AO1 =
2017-12-17 22:55 METAR KLOM 180355Z AUTO 00000KT 10SM OVC090 01/M01 A3020 RMK AO1 =
2017-12-17 22:35 METAR KLOM 180335Z AUTO 00000KT 10SM OVC090 01/M01 A3020 RMK AO1 =
2017-12-17 22:15 METAR KLOM 180315Z AUTO 00000KT 10SM OVC100 01/M01 A3021 RMK AO1 =
2017-12-17 21:55 METAR KLOM 180255Z AUTO 00000KT 10SM OVC100 01/M01 A3022 RMK AO1 =
2017-12-17 21:35 METAR KLOM 180235Z AUTO 00000KT 10SM OVC100 00/M01 A3022 RMK AO1 =
2017-12-17 21:10 METAR KLOM 180210Z AUTO 00000KT 10SM OVC110 00/M01 A3023 RMK AO1 =
2017-12-17 20:55 METAR KLOM 180155Z AUTO 00000KT 10SM OVC110 00/M01 A3023 RMK AO1 =
2017-12-17 20:35 METAR KLOM 180135Z AUTO 00000KT 10SM BKN120 00/M01 A3023 RMK AO1 =
2017-12-17 20:15 METAR KLOM 180115Z AUTO 00000KT 10SM SCT120 00/M02 A3023 RMK AO1 =
2017-12-17 19:55 METAR KLOM 180055Z AUTO 00000KT 10SM CLR 00/M02 A3023 RMK AO1 =
2017-12-17 19:35 METAR KLOM 180035Z AUTO 00000KT 10SM CLR 00/M02 A3024 RMK AO1 =
2017-12-17 19:15 METAR KLOM 180015Z AUTO 00000KT 10SM SCT110 00/M01 A3025 RMK AO1 =
2017-12-17 18:55 METAR KLOM 172355Z AUTO 00000KT 10SM BKN110 00/M02 A3025 RMK AO1 =
2017-12-17 18:35 METAR KLOM 172335Z AUTO 00000KT 10SM OVC110 01/M01 A3025 RMK AO1 =
2017-12-17 18:15 METAR KLOM 172315Z AUTO 00000KT 10SM BKN120 01/M02 A3025 RMK AO1 =
2017-12-17 17:55 METAR KLOM 172255Z AUTO 00000KT 10SM SCT120 01/M02 A3024 RMK AO1 =
2017-12-17 17:35 METAR KLOM 172235Z AUTO 00000KT 10SM CLR 02/M02 A3023 RMK AO1 =
2017-12-17 17:15 METAR KLOM 172215Z AUTO 00000KT 10SM CLR 02/M02 A3023 RMK AO1 =
2017-12-17 16:55 METAR KLOM 172155Z AUTO 00000KT 10SM CLR 02/M02 A3023 RMK AO1 =
2017-12-17 16:35 METAR KLOM 172135Z AUTO 00000KT 10SM CLR 02/M02 A3023 RMK AO1 =
2017-12-17 16:15 METAR KLOM 172115Z AUTO 00000KT 10SM CLR 03/M02 A3022 RMK AO1 =
2017-12-17 15:55 METAR KLOM 172055Z AUTO 00000KT 10SM CLR 03/M02 A3022 RMK AO1 =
2017-12-17 15:35 METAR KLOM 172035Z AUTO 00000KT 10SM CLR 03/M02 A3023 RMK AO1 =
2017-12-17 15:15 METAR KLOM 172015Z AUTO 00000KT 10SM CLR 03/M02 A3021 RMK AO1 =
2017-12-17 14:55 METAR KLOM 171955Z AUTO 00000KT 10SM CLR 03/M02 A3022 RMK AO1 =
2017-12-17 14:35 METAR KLOM 171935Z AUTO 00000KT 10SM CLR 04/M02 A3023 RMK AO1 =
2017-12-17 14:15 METAR KLOM 171915Z AUTO 00000KT 10SM CLR 04/M02 A3022 RMK AO1 =
2017-12-17 13:55 METAR KLOM 171855Z AUTO 00000KT 10SM CLR 04/M02 A3023 RMK AO1 =
2017-12-17 13:35 METAR KLOM 171835Z AUTO 00000KT 10SM CLR 04/M02 A3023 RMK AO1 =
2017-12-17 13:15 METAR KLOM 171815Z AUTO 00000KT 10SM CLR 04/M02 A3023 RMK AO1 =
2017-12-17 12:55 METAR KLOM 171755Z AUTO 00000KT 10SM CLR 03/M02 A3024 RMK AO1 =
2017-12-17 12:35 METAR KLOM 171735Z AUTO 00000KT 10SM CLR 03/M02 A3025 RMK AO1 =
2017-12-17 12:15 METAR KLOM 171715Z AUTO 00000KT 10SM CLR 03/M02 A3026 RMK AO1 =
2017-12-17 11:55 METAR KLOM 171655Z AUTO 00000KT 10SM CLR 03/M03 A3027 RMK AO1 =
2017-12-17 11:35 METAR KLOM 171635Z AUTO 00000KT 10SM CLR 03/M03 A3028 RMK AO1 =
2017-12-17 11:15 METAR KLOM 171615Z AUTO 00000KT 10SM CLR 02/M03 A3029 RMK AO1 =
2017-12-17 10:55 METAR KLOM 171555Z AUTO 08003KT 10SM CLR 02/M03 A3030 RMK AO1 =
2017-12-17 10:35 METAR KLOM 171535Z AUTO 07004KT 10SM CLR 01/M03 A3030 RMK AO1 =
2017-12-17 10:15 METAR KLOM 171515Z AUTO 07003KT 10SM CLR 01/M03 A3029 RMK AO1 =
2017-12-17 09:55 METAR KLOM 171455Z AUTO 08004KT 10SM CLR 00/M03 A3030 RMK AO1 =
2017-12-17 09:35 METAR KLOM 171435Z AUTO 07004KT 10SM CLR 00/M03 A3029 RMK AO1 =

Support USWX by starting your Amazon purchase here.